Time;durP1;ratioP1;P1;durP2;ratioP2;P2;SDS_P1;SDS_P2;PMS_P1;PMS_P2;Temp;Humidity;BMP_temperature;BMP_pressure;BME280_temperature;BME280_humidity;BME280_pressure;Samples;Min_cycle;Max_cycle;Signal;HPM_P1;HPM_P2
2023/06/13 00:01:54;;;;;;;14.35;9.10;;;;;;;18.33;76.47;94155.44;4210203;28;20052;-59
2023/06/13 00:03:56;;;;;;;13.48;10.07;;;;;;;18.36;76.24;94152.31;4201076;28;20063;-59
2023/06/13 00:06:01;;;;;;;13.10;10.13;;;;;;;18.19;76.19;94152.88;4210444;28;20079;-57
2023/06/13 00:08:03;;;;;;;12.07;10.13;;;;;;;17.99;76.89;94147.78;4200177;28;20048;-57
2023/06/13 00:10:06;;;;;;;11.60;9.70;;;;;;;17.94;77.27;94145.00;4210132;28;20052;-59
2023/06/13 00:12:09;;;;;;;14.63;10.55;;;;;;;17.98;77.78;94146.19;4203729;28;20048;-59
2023/06/13 00:14:12;;;;;;;11.30;10.20;;;;;;;18.06;77.36;94145.06;4204896;28;20098;-58
2023/06/13 00:16:15;;;;;;;11.13;10.10;;;;;;;18.14;77.04;94138.69;4212680;28;20590;-57
2023/06/13 00:18:19;;;;;;;11.45;10.25;;;;;;;18.17;76.80;94136.38;4210102;28;20444;-56
2023/06/13 00:20:21;;;;;;;10.50;9.50;;;;;;;18.20;76.44;94133.31;4212695;28;20044;-58
2023/06/13 00:22:24;;;;;;;11.65;9.07;;;;;;;18.20;76.62;94138.63;4213182;28;20129;-59
2023/06/13 00:24:26;;;;;;;12.38;9.52;;;;;;;18.22;76.64;94130.44;4200403;28;20193;-58
2023/06/13 00:26:28;;;;;;;13.27;10.05;;;;;;;18.30;76.23;94130.13;4213523;28;20040;-59
2023/06/13 00:28:29;;;;;;;10.82;9.73;;;;;;;18.34;76.00;94128.66;4210400;28;20091;-59
2023/06/13 00:30:31;;;;;;;11.00;9.90;;;;;;;18.37;76.12;94125.59;4207531;28;20482;-59
2023/06/13 00:32:33;;;;;;;11.45;9.70;;;;;;;18.38;75.99;94129.06;4212102;28;20481;-58
2023/06/13 00:34:36;;;;;;;12.98;10.18;;;;;;;18.41;75.70;94128.59;4212024;28;20044;-59
2023/06/13 00:36:37;;;;;;;12.20;10.27;;;;;;;18.43;75.37;94131.84;4203531;28;20070;-59
2023/06/13 00:38:39;;;;;;;10.98;9.88;;;;;;;18.44;75.63;94130.03;4212330;28;20055;-61
2023/06/13 00:40:41;;;;;;;12.77;10.15;;;;;;;18.45;75.57;94132.44;4213344;28;20055;-60
2023/06/13 00:42:43;;;;;;;11.70;9.27;;;;;;;18.46;75.41;94133.25;4211607;28;20044;-60
2023/06/13 00:44:45;;;;;;;11.73;9.48;;;;;;;18.46;75.34;94127.97;4204441;28;20158;-59
2023/06/13 00:46:47;;;;;;;11.50;8.88;;;;;;;18.45;75.22;94134.28;4213328;28;20043;-59
2023/06/13 00:48:49;;;;;;;8.98;8.07;;;;;;;18.45;74.66;94131.63;4203849;28;20451;-59
2023/06/13 00:50:52;;;;;;;9.88;8.90;;;;;;;18.47;74.49;94132.22;4209792;28;20549;-57
2023/06/13 00:52:55;;;;;;;9.02;8.10;;;;;;;18.42;73.97;94127.56;4210994;28;20093;-60
2023/06/13 00:54:56;;;;;;;14.07;8.90;;;;;;;18.45;74.03;94134.28;4196892;28;20048;-58
2023/06/13 00:56:59;;;;;;;12.70;8.02;;;;;;;18.47;74.45;94126.91;4198349;28;20215;-57
2023/06/13 00:59:02;;;;;;;10.55;9.35;;;;;;;18.50;74.45;94127.28;4205744;28;20056;-57
2023/06/13 01:01:04;;;;;;;11.10;8.30;;;;;;;18.52;74.40;94122.56;4209567;28;20145;-59
2023/06/13 01:03:15;;;;;;;12.75;9.02;;;;;;;18.54;74.12;94117.03;4203408;28;20048;-57
2023/06/13 01:05:18;;;;;;;13.00;7.80;;;;;;;18.53;74.42;94121.53;4204407;28;20032;-60
2023/06/13 01:07:20;;;;;;;9.05;7.82;;;;;;;18.53;74.39;94118.06;4209672;28;20052;-60
2023/06/13 01:09:22;;;;;;;9.82;7.25;;;;;;;18.46;74.13;94114.69;4209297;28;20051;-59
2023/06/13 01:11:37;;;;;;;7.85;6.53;;;;;;;18.47;74.11;94116.31;4200860;28;20143;-59
2023/06/13 01:14:09;;;;;;;7.88;6.50;;;;;;;18.40;73.93;94124.34;4196811;28;20060;-60
2023/06/13 01:16:23;;;;;;;8.95;6.70;;;;;;;18.43;73.63;94115.91;4213121;28;20123;-59
2023/06/13 01:18:25;;;;;;;7.13;6.43;;;;;;;18.45;73.73;94123.66;4211671;28;20058;-58
2023/06/13 01:20:34;;;;;;;8.93;6.90;;;;;;;18.45;73.93;94119.16;4198103;28;20425;-60
2023/06/13 01:23:15;;;;;;;8.40;7.60;;;;;;;18.48;73.84;94118.75;4203757;28;20048;-55
2023/06/13 01:25:26;;;;;;;7.53;6.75;;;;;;;18.46;73.81;94114.69;4210286;28;20608;-59
2023/06/13 01:27:28;;;;;;;11.40;8.27;;;;;;;18.45;73.84;94121.00;4210270;28;20048;-58
2023/06/13 01:29:34;;;;;;;9.35;8.45;;;;;;;18.41;74.23;94125.94;4211663;28;20556;-57
2023/06/13 01:31:36;;;;;;;9.18;8.02;;;;;;;18.42;74.23;94130.22;4211391;28;20107;-58
2023/06/13 01:33:38;;;;;;;9.48;8.55;;;;;;;18.39;74.01;94128.00;4210192;28;20052;-57
2023/06/13 01:35:40;;;;;;;10.00;8.48;;;;;;;18.36;74.06;94129.25;4210056;28;20044;-60
2023/06/13 01:37:42;;;;;;;11.57;9.00;;;;;;;18.32;73.86;94132.56;4203099;28;20098;-58
2023/06/13 01:39:44;;;;;;;10.00;8.48;;;;;;;18.27;73.96;94127.13;4206134;28;20053;-59
2023/06/13 01:41:46;;;;;;;10.25;8.23;;;;;;;18.24;74.14;94127.56;4201169;28;20447;-58
2023/06/13 01:43:47;;;;;;;11.38;8.43;;;;;;;18.25;74.18;94123.91;4200894;28;20048;-59
2023/06/13 01:45:54;;;;;;;10.70;8.82;;;;;;;18.24;73.97;94125.75;4211334;28;20051;-54
2023/06/13 01:48:03;;;;;;;9.48;8.05;;;;;;;18.21;73.95;94129.63;4197941;28;20151;-58
2023/06/13 01:50:42;;;;;;;10.48;8.20;;;;;;;18.19;73.57;94128.22;4200944;28;20055;-57
2023/06/13 01:52:49;;;;;;;8.77;7.90;;;;;;;18.16;73.77;94120.72;4201908;28;20052;-58
2023/06/13 01:55:00;;;;;;;8.98;8.05;;;;;;;18.14;73.70;94123.59;4207494;28;20474;-57
2023/06/13 01:57:03;;;;;;;16.20;8.52;;;;;;;18.15;73.61;94124.38;4209714;28;20044;-60
2023/06/13 01:59:08;;;;;;;11.32;8.55;;;;;;;18.12;73.59;94122.19;4207445;28;20097;-60
2023/06/13 02:01:10;;;;;;;9.00;7.97;;;;;;;18.10;73.72;94122.41;4201956;28;20055;-58
2023/06/13 02:03:13;;;;;;;10.65;8.25;;;;;;;18.09;73.49;94120.78;4207323;28;20059;-58
2023/06/13 02:05:15;;;;;;;11.70;7.80;;;;;;;18.08;73.65;94126.31;4207302;28;20441;-55
2023/06/13 02:07:16;;;;;;;8.80;7.90;;;;;;;18.05;73.70;94124.91;4202520;28;20075;-56
2023/06/13 02:09:18;;;;;;;11.35;8.00;;;;;;;18.03;73.40;94118.22;4211068;28;20052;-55
2023/06/13 02:11:20;;;;;;;9.20;7.47;;;;;;;18.01;73.60;94129.81;4205226;28;20048;-59
2023/06/13 02:13:22;;;;;;;10.05;7.20;;;;;;;17.93;73.68;94122.16;4208577;28;20517;-57
2023/06/13 02:15:24;;;;;;;8.40;7.45;;;;;;;17.93;73.59;94116.84;4205817;28;20077;-58
2023/06/13 02:17:26;;;;;;;9.20;6.90;;;;;;;17.93;73.42;94119.50;4211409;28;20135;-59
2023/06/13 02:19:29;;;;;;;9.07;7.07;;;;;;;17.93;73.67;94116.06;4211149;28;20631;-55
2023/06/13 02:21:31;;;;;;;11.07;6.57;;;;;;;17.91;73.47;94116.25;4208414;28;20048;-57
2023/06/13 02:23:33;;;;;;;10.88;6.93;;;;;;;17.88;73.38;94116.72;4207855;28;20090;-58
2023/06/13 02:25:35;;;;;;;9.35;6.43;;;;;;;17.83;73.16;94121.84;4198703;28;20046;-59
2023/06/13 02:27:38;;;;;;;8.75;6.88;;;;;;;17.80;73.49;94119.59;4210949;28;20048;-56
2023/06/13 02:29:40;;;;;;;10.53;7.60;;;;;;;17.78;73.47;94121.66;4211476;28;20056;-57
2023/06/13 02:31:42;;;;;;;9.68;7.13;;;;;;;17.73;73.37;94118.88;4211371;28;20047;-57
2023/06/13 02:33:44;;;;;;;8.25;6.50;;;;;;;17.68;73.03;94123.97;4210896;28;20324;-58
2023/06/13 02:35:45;;;;;;;10.45;6.47;;;;;;;17.63;73.25;94124.63;4209724;28;20059;-56
2023/06/13 02:37:47;;;;;;;8.68;5.95;;;;;;;17.59;73.45;94132.22;4207018;28;20048;-58
2023/06/13 02:39:49;;;;;;;9.38;5.97;;;;;;;17.60;73.39;94133.03;4203149;28;20086;-59
2023/06/13 02:41:51;;;;;;;8.68;6.30;;;;;;;17.57;73.16;94131.63;4211777;28;20102;-58
2023/06/13 02:43:52;;;;;;;9.52;6.57;;;;;;;17.57;72.97;94134.28;4210017;28;20266;-56
2023/06/13 02:45:54;;;;;;;6.43;5.78;;;;;;;17.56;73.27;94132.63;4211278;28;20447;-58
2023/06/13 02:47:56;;;;;;;6.53;5.93;;;;;;;17.57;73.04;94138.75;4211253;28;20060;-56
2023/06/13 02:49:58;;;;;;;8.18;5.93;;;;;;;17.59;73.15;94132.22;4209440;28;20520;-54
2023/06/13 02:52:00;;;;;;;6.53;5.40;;;;;;;17.59;72.76;94132.22;4210109;28;20151;-58
2023/06/13 02:54:01;;;;;;;9.35;5.53;;;;;;;17.54;72.51;94136.53;4210593;28;20520;-57
2023/06/13 02:56:03;;;;;;;6.95;5.95;;;;;;;17.54;72.75;94141.84;4201966;28;20084;-58
2023/06/13 02:58:05;;;;;;;7.47;6.25;;;;;;;17.52;72.98;94138.59;4194954;28;20048;-57
2023/06/13 03:00:13;;;;;;;8.73;6.07;;;;;;;17.55;72.82;94146.91;4199061;28;20258;-59
2023/06/13 03:02:16;;;;;;;7.78;6.28;;;;;;;17.59;72.68;94140.16;4210284;28;20040;-59
2023/06/13 03:04:18;;;;;;;9.27;6.43;;;;;;;17.56;72.62;94142.44;4193655;28;20132;-59
2023/06/13 03:06:20;;;;;;;8.35;6.30;;;;;;;17.58;72.52;94145.66;4194845;28;20059;-56
2023/06/13 03:08:22;;;;;;;9.75;6.57;;;;;;;17.59;72.25;94148.13;4194462;28;20048;-56
2023/06/13 03:10:24;;;;;;;9.80;6.97;;;;;;;17.60;72.32;94155.03;4201806;28;20078;-55
2023/06/13 03:12:26;;;;;;;8.75;7.18;;;;;;;17.59;72.44;94152.56;4205267;28;20048;-58
2023/06/13 03:14:29;;;;;;;11.40;7.65;;;;;;;17.57;72.45;94152.81;4210980;28;20177;-56
2023/06/13 03:16:31;;;;;;;10.40;8.50;;;;;;;17.56;72.40;94147.72;4210360;28;20093;-56
2023/06/13 03:18:35;;;;;;;11.27;9.20;;;;;;;17.56;72.38;94151.19;4210381;28;20052;-58
2023/06/13 03:20:37;;;;;;;10.70;8.68;;;;;;;17.54;72.43;94155.06;4207388;28;20411;-58
2023/06/13 03:22:39;;;;;;;9.60;8.57;;;;;;;17.55;72.53;94148.72;4203262;28;20128;-58
2023/06/13 03:24:42;;;;;;;11.95;8.70;;;;;;;17.56;72.28;94151.19;4210361;28;20052;-55
2023/06/13 03:26:44;;;;;;;12.20;9.52;;;;;;;17.59;72.65;94145.47;4201007;28;20426;-58
2023/06/13 03:28:45;;;;;;;12.60;9.55;;;;;;;17.63;72.46;94152.97;4196459;28;20095;-59
2023/06/13 03:30:47;;;;;;;13.35;10.32;;;;;;;17.64;72.32;94150.09;4211213;28;20044;-58
2023/06/13 03:32:54;;;;;;;12.82;10.93;;;;;;;17.66;72.14;94144.56;4210576;28;20052;-59
2023/06/13 03:34:57;;;;;;;13.48;10.60;;;;;;;17.65;71.84;94146.41;4208300;28;20486;-56
2023/06/13 03:37:03;;;;;;;14.93;10.88;;;;;;;17.65;72.22;94148.25;4210747;28;20099;-58
2023/06/13 03:39:04;;;;;;;15.32;11.98;;;;;;;17.66;71.87;94150.72;4208894;28;20044;-60
2023/06/13 03:41:06;;;;;;;14.65;12.07;;;;;;;17.60;72.24;94147.06;4210952;28;20121;-60
2023/06/13 03:43:09;;;;;;;14.02;12.07;;;;;;;17.64;72.23;94149.28;4210161;28;20149;-59
2023/06/13 03:45:10;;;;;;;16.80;13.07;;;;;;;17.64;72.38;94154.56;4210698;28;20109;-56
2023/06/13 03:47:12;;;;;;;16.85;12.43;;;;;;;17.66;72.37;94155.16;4195148;28;20139;-60
2023/06/13 03:49:14;;;;;;;20.80;12.85;;;;;;;17.66;72.16;94158.66;4193601;28;20091;-59
2023/06/13 03:51:16;;;;;;;17.17;12.45;;;;;;;17.68;72.11;94156.59;4198676;28;20514;-58
2023/06/13 03:53:18;;;;;;;15.85;12.60;;;;;;;17.71;71.95;94156.16;4198144;28;20054;-59
2023/06/13 03:55:20;;;;;;;16.02;13.75;;;;;;;17.76;71.89;94166.09;4201542;28;20130;-60
2023/06/13 03:57:21;;;;;;;18.48;12.85;;;;;;;17.83;71.83;94158.94;4212876;28;20044;-58
2023/06/13 03:59:23;;;;;;;20.60;12.95;;;;;;;17.91;71.69;94153.34;4206871;28;20200;-57
2023/06/13 04:01:25;;;;;;;15.23;13.45;;;;;;;17.94;71.27;94165.34;4198441;28;20409;-60
2023/06/13 04:03:29;;;;;;;22.67;13.55;;;;;;;17.96;71.15;94166.78;4201206;28;20048;-60
2023/06/13 04:05:31;;;;;;;16.90;13.20;;;;;;;18.05;70.98;94166.47;4201049;28;20045;-58
2023/06/13 04:07:35;;;;;;;19.90;13.38;;;;;;;18.08;70.79;94166.06;4209551;28;20043;-60
2023/06/13 04:09:36;;;;;;;18.30;12.88;;;;;;;18.14;70.45;94170.50;4208153;28;20050;-58
2023/06/13 04:11:38;;;;;;;16.77;12.77;;;;;;;18.18;70.49;94164.53;4202669;28;20048;-59
2023/06/13 04:13:41;;;;;;;19.30;13.40;;;;;;;18.23;69.92;94163.06;4212328;28;20051;-57
2023/06/13 04:15:42;;;;;;;20.75;13.57;;;;;;;18.31;70.01;94168.91;4213481;28;20101;-59
2023/06/13 04:17:44;;;;;;;16.33;13.35;;;;;;;18.29;69.48;94168.31;4214072;28;20048;-59
2023/06/13 04:19:48;;;;;;;18.45;14.20;;;;;;;18.35;69.60;94170.09;4212872;28;20052;-59
2023/06/13 04:21:51;;;;;;;20.27;13.23;;;;;;;18.42;69.80;94167.34;4201654;28;20129;-58
2023/06/13 04:23:53;;;;;;;19.13;14.00;;;;;;;18.44;69.60;94175.91;4199300;28;20105;-58
2023/06/13 04:25:57;;;;;;;20.92;14.15;;;;;;;18.44;69.16;94169.81;4206281;28;20495;-60
2023/06/13 04:27:58;;;;;;;22.42;14.75;;;;;;;18.45;69.37;94174.84;4199839;28;20048;-58
2023/06/13 04:30:00;;;;;;;24.35;15.10;;;;;;;18.48;69.06;94177.09;4200643;28;20131;-59
2023/06/13 04:32:02;;;;;;;19.23;14.45;;;;;;;18.44;69.28;94181.22;4212620;28;20050;-60
2023/06/13 04:34:05;;;;;;;20.55;14.10;;;;;;;18.43;69.39;94179.56;4212813;28;20051;-61
2023/06/13 04:36:08;;;;;;;22.98;14.85;;;;;;;18.54;69.07;94186.00;4210142;28;20090;-60
2023/06/13 04:38:29;;;;;;;18.35;13.40;;;;;;;18.67;68.35;94180.56;4204136;28;20044;-60
2023/06/13 04:40:31;;;;;;;21.40;15.35;;;;;;;18.69;68.54;94186.44;4212754;28;20055;-60
2023/06/13 04:42:34;;;;;;;20.13;14.65;;;;;;;18.56;68.57;94187.41;4213396;28;20082;-61
2023/06/13 04:44:37;;;;;;;18.17;13.85;;;;;;;18.62;68.92;94185.69;4213134;28;20054;-62
2023/06/13 04:46:43;;;;;;;18.15;14.00;;;;;;;18.71;68.75;94183.56;4213712;28;20050;-61
2023/06/13 04:48:45;;;;;;;19.67;14.30;;;;;;;18.82;68.26;94188.97;4199680;28;20083;-59
2023/06/13 04:50:48;;;;;;;18.77;14.82;;;;;;;18.92;67.87;94187.63;4206297;28;20048;-62
2023/06/13 04:52:53;;;;;;;25.20;15.57;;;;;;;19.01;67.89;94184.47;4197940;28;20052;-60
2023/06/13 04:54:56;;;;;;;19.77;15.38;;;;;;;19.08;67.56;94187.03;4196869;28;20130;-59
2023/06/13 04:56:59;;;;;;;20.58;14.93;;;;;;;19.19;67.43;94188.13;4197319;28;20076;-61
2023/06/13 04:59:01;;;;;;;19.73;14.93;;;;;;;19.30;67.12;94190.00;4197706;28;20391;-59
2023/06/13 05:01:02;;;;;;;23.63;14.20;;;;;;;19.35;66.88;94192.78;4207191;28;20056;-61
2023/06/13 05:03:06;;;;;;;21.65;15.45;;;;;;;19.43;66.07;94186.34;4199136;28;20083;-62
2023/06/13 05:05:08;;;;;;;23.10;14.55;;;;;;;19.51;65.94;94191.34;4212642;28;20603;-60
2023/06/13 05:07:14;;;;;;;21.60;15.02;;;;;;;19.55;65.69;94202.31;4204983;28;20070;-60
2023/06/13 05:09:17;;;;;;;26.60;16.67;;;;;;;19.55;65.73;94197.84;4208837;28;20077;-62
2023/06/13 05:11:18;;;;;;;19.90;15.52;;;;;;;19.54;65.95;94198.06;4200497;28;20062;-60
2023/06/13 05:13:20;;;;;;;20.17;15.00;;;;;;;19.55;66.11;94194.34;4210099;28;20179;-60
2023/06/13 05:15:22;;;;;;;19.63;15.93;;;;;;;19.61;66.40;94196.09;4208482;28;20445;-58
2023/06/13 05:17:27;;;;;;;21.70;15.60;;;;;;;19.64;65.91;94196.47;4212853;28;20040;-61
2023/06/13 05:19:29;;;;;;;17.65;15.07;;;;;;;19.69;66.37;94198.44;4212015;28;20417;-60
2023/06/13 05:21:32;;;;;;;26.58;15.13;;;;;;;19.67;65.91;94197.03;4200452;28;20049;-61
2023/06/13 05:23:35;;;;;;;14.70;12.95;;;;;;;19.73;65.75;94194.31;4209626;28;20469;-58
2023/06/13 05:25:37;;;;;;;;;;;;;;;19.82;64.60;94195.59;4213571;28;20052;-61
2023/06/13 05:27:39;;;;;;;14.45;11.68;;;;;;;19.92;64.55;94192.41;4208229;28;19927;-59
2023/06/13 05:29:41;;;;;;;17.90;11.88;;;;;;;19.98;64.20;94193.31;4203482;28;20055;-60
2023/06/13 05:31:42;;;;;;;12.23;10.35;;;;;;;20.01;64.17;94204.31;4208609;28;20052;-59
2023/06/13 05:33:44;;;;;;;16.38;11.98;;;;;;;20.12;64.00;94197.38;4211065;28;20048;-59
2023/06/13 05:35:46;;;;;;;17.67;11.93;;;;;;;20.17;63.83;94200.13;4211613;28;20052;-62
2023/06/13 05:37:58;;;;;;;15.02;13.18;;;;;;;20.05;64.05;94197.47;4212913;28;20066;-61
2023/06/13 05:40:00;;;;;;;17.40;12.48;;;;;;;19.89;64.57;94198.16;4211780;28;20058;-60
2023/06/13 05:42:02;;;;;;;16.10;12.07;;;;;;;19.94;64.72;94192.97;4211845;28;20056;-59
2023/06/13 05:44:03;;;;;;;14.50;11.90;;;;;;;20.11;64.51;94200.25;4212508;28;20078;-61
2023/06/13 05:46:05;;;;;;;15.55;11.65;;;;;;;20.24;64.18;94190.22;4212413;28;20044;-59
2023/06/13 05:48:07;;;;;;;20.33;12.35;;;;;;;20.38;64.06;94193.44;4211842;28;20052;-59
2023/06/13 05:50:10;;;;;;;13.98;12.13;;;;;;;20.36;64.01;94192.06;4210136;28;20056;-58
2023/06/13 05:52:12;;;;;;;21.98;13.15;;;;;;;20.34;64.01;94189.63;4211596;28;20155;-56
2023/06/13 05:54:14;;;;;;;14.57;12.55;;;;;;;20.28;64.23;94205.69;4202900;28;20539;-60
2023/06/13 05:56:16;;;;;;;15.60;12.68;;;;;;;20.35;64.00;94209.03;4207908;28;20047;-59
2023/06/13 05:58:18;;;;;;;17.65;11.93;;;;;;;20.28;64.43;94205.69;4211880;28;20051;-59
2023/06/13 06:00:20;;;;;;;14.40;11.18;;;;;;;20.13;64.65;94206.97;4211720;28;20058;-61
2023/06/13 06:02:21;;;;;;;12.07;10.77;;;;;;;19.86;65.05;94205.78;4212911;28;20407;-61
2023/06/13 06:04:25;;;;;;;13.02;9.20;;;;;;;19.60;65.21;94195.28;4209933;28;20048;-60
2023/06/13 06:06:27;;;;;;;;;;;;;;;19.60;65.83;94195.28;4212347;28;20397;-58
2023/06/13 06:08:28;;;;;;;11.05;8.30;;;;;;;19.73;64.89;94198.81;4211706;28;19924;-56
2023/06/13 06:10:30;;;;;;;11.93;8.52;;;;;;;19.81;64.74;94195.81;4212265;28;20577;-59
2023/06/13 06:12:32;;;;;;;8.82;7.15;;;;;;;19.94;64.62;94200.94;4205636;28;20052;-58
2023/06/13 06:14:33;;;;;;;11.93;7.22;;;;;;;19.95;64.50;94201.75;4210569;28;20058;-59
2023/06/13 06:16:35;;;;;;;9.52;7.95;;;;;;;20.13;64.50;94195.53;4211746;28;20126;-59
2023/06/13 06:18:37;;;;;;;12.73;7.00;;;;;;;20.32;64.34;94196.22;4203887;28;20044;-61
2023/06/13 06:20:39;;;;;;;12.07;7.78;;;;;;;20.54;64.39;94199.94;4208417;28;20502;-59
2023/06/13 06:22:40;;;;;;;8.75;7.53;;;;;;;20.68;64.14;94197.84;4204592;28;20052;-56
2023/06/13 06:24:43;;;;;;;10.18;7.80;;;;;;;20.84;63.08;94198.97;4201645;28;20055;-60
2023/06/13 06:26:44;;;;;;;12.27;8.57;;;;;;;20.97;62.78;94201.38;4199661;28;20039;-59
2023/06/13 06:28:46;;;;;;;10.50;7.75;;;;;;;21.11;62.46;94198.44;4209117;28;20108;-60
2023/06/13 06:30:48;;;;;;;10.65;7.80;;;;;;;21.22;62.68;94203.72;4210722;28;20048;-59
2023/06/13 06:32:51;;;;;;;9.68;8.65;;;;;;;21.37;62.25;94195.22;4211614;28;20051;-60
2023/06/13 06:34:54;;;;;;;12.23;8.68;;;;;;;21.54;61.05;94197.94;4209907;28;20389;-61
2023/06/13 06:36:56;;;;;;;8.70;7.63;;;;;;;21.70;60.00;94190.22;4212448;28;20052;-61
2023/06/13 06:38:58;;;;;;;10.27;8.25;;;;;;;21.77;59.78;94194.38;4210083;28;20058;-61
2023/06/13 06:41:00;;;;;;;11.00;9.02;;;;;;;21.61;57.91;94187.13;4211244;28;20052;-59
2023/06/13 06:43:01;;;;;;;12.25;8.13;;;;;;;21.74;58.79;94189.50;4211865;28;20048;-59
2023/06/13 06:45:04;;;;;;;11.07;9.23;;;;;;;21.87;58.93;94191.03;4212137;28;20438;-59
2023/06/13 06:47:06;;;;;;;13.95;8.02;;;;;;;21.68;58.44;94187.78;4210595;28;20055;-60
2023/06/13 06:49:08;;;;;;;7.45;6.63;;;;;;;21.57;58.93;94186.81;4205444;28;20131;-58
2023/06/13 06:51:09;;;;;;;11.80;9.75;;;;;;;21.51;59.46;94190.44;4194736;28;20526;-58
2023/06/13 06:53:11;;;;;;;16.05;10.80;;;;;;;21.58;59.19;94188.44;4206569;28;20460;-59
2023/06/13 06:55:13;;;;;;;16.13;11.07;;;;;;;21.51;59.09;94190.44;4209867;28;20056;-59
2023/06/13 06:57:14;;;;;;;14.20;10.77;;;;;;;21.51;59.46;94190.44;4200559;28;20044;-62
2023/06/13 06:59:16;;;;;;;17.25;11.80;;;;;;;21.50;60.14;94194.16;4210317;28;20060;-62
2023/06/13 07:01:18;;;;;;;15.95;11.73;;;;;;;21.37;60.41;94199.75;4210696;28;20134;-61
2023/06/13 07:03:20;;;;;;;16.55;12.35;;;;;;;21.29;60.65;94198.25;4209541;28;20517;-63
2023/06/13 07:05:22;;;;;;;13.65;11.52;;;;;;;21.34;60.81;94195.69;4204743;28;20132;-62
2023/06/13 07:07:24;;;;;;;13.55;11.25;;;;;;;21.30;60.70;94199.88;4194901;28;20052;-60
2023/06/13 07:09:26;;;;;;;14.38;11.63;;;;;;;21.28;60.29;94192.13;4194247;28;20053;-59
2023/06/13 07:11:27;;;;;;;16.20;11.52;;;;;;;21.25;60.71;94195.28;4206673;28;20127;-61
2023/06/13 07:13:30;;;;;;;13.02;11.20;;;;;;;21.31;60.55;94182.03;4210306;28;20155;-60
2023/06/13 07:15:31;;;;;;;14.00;10.98;;;;;;;21.35;60.26;94196.50;4206901;28;20083;-57
2023/06/13 07:17:33;;;;;;;14.45;10.80;;;;;;;21.34;60.13;94189.53;4201094;28;20505;-60
2023/06/13 07:19:35;;;;;;;12.20;10.90;;;;;;;21.42;60.13;94194.53;4209902;28;20549;-61
2023/06/13 07:21:37;;;;;;;14.88;10.95;;;;;;;21.47;60.03;94191.97;4200800;28;20127;-60
2023/06/13 07:23:39;;;;;;;11.07;9.85;;;;;;;21.66;59.22;94187.22;4207383;28;20063;-60
2023/06/13 07:25:57;;;;;;;13.13;10.35;;;;;;;21.63;59.28;94188.50;4202673;28;20077;-59
2023/06/13 07:27:59;;;;;;;11.15;9.90;;;;;;;21.65;59.09;94183.75;4210219;28;20047;-59
2023/06/13 07:30:01;;;;;;;13.55;9.40;;;;;;;21.71;59.08;94183.84;4211371;28;20420;-59
2023/06/13 07:32:03;;;;;;;17.08;11.10;;;;;;;21.78;58.97;94181.84;4209646;28;20047;-57
2023/06/13 07:34:05;;;;;;;13.27;9.18;;;;;;;21.81;58.77;94184.84;4208621;28;20685;-59
2023/06/13 07:36:20;;;;;;;9.55;8.55;;;;;;;21.87;58.26;94180.38;4202942;28;20630;-61
2023/06/13 07:38:22;;;;;;;13.63;9.00;;;;;;;21.83;58.51;94180.06;4195691;28;20490;-58
2023/06/13 07:40:24;;;;;;;10.25;9.02;;;;;;;21.82;58.41;94178.44;4206852;28;20491;-58
2023/06/13 07:42:26;;;;;;;10.95;8.52;;;;;;;21.77;58.89;94181.03;4204504;28;20710;-59
2023/06/13 07:44:28;;;;;;;12.02;8.60;;;;;;;21.76;58.35;94182.06;4198918;28;20059;-62
2023/06/13 07:46:30;;;;;;;12.38;9.38;;;;;;;21.71;59.15;94179.31;4211161;28;20052;-61
2023/06/13 07:48:32;;;;;;;13.70;9.05;;;;;;;21.67;58.74;94183.53;4203311;28;20058;-59
2023/06/13 07:50:34;;;;;;;16.98;10.27;;;;;;;21.61;59.27;94179.94;4203621;28;20055;-61
2023/06/13 07:52:35;;;;;;;13.98;9.95;;;;;;;21.62;59.35;94183.44;4209343;28;20528;-60
2023/06/13 07:54:38;;;;;;;12.63;10.20;;;;;;;21.64;59.22;94182.16;4200678;28;20052;-59
2023/06/13 07:56:39;;;;;;;13.43;10.50;;;;;;;21.59;59.26;94181.25;4202770;28;20131;-60
2023/06/13 07:58:41;;;;;;;12.27;10.50;;;;;;;21.59;59.35;94181.25;4205220;28;20196;-60
2023/06/13 08:00:43;;;;;;;12.40;9.77;;;;;;;21.63;59.01;94191.19;4205140;28;20058;-61
2023/06/13 08:02:45;;;;;;;11.20;9.43;;;;;;;21.62;58.87;94178.13;4206954;28;20131;-62
2023/06/13 08:04:46;;;;;;;11.70;9.50;;;;;;;21.65;58.90;94181.09;4203291;28;20135;-60
2023/06/13 08:06:57;;;;;;;15.90;9.20;;;;;;;21.73;58.98;94179.09;4205677;28;20048;-58
2023/06/13 08:08:59;;;;;;;10.40;9.30;;;;;;;21.73;58.92;94176.44;4207227;28;20474;-60
2023/06/13 08:11:01;;;;;;;17.35;9.80;;;;;;;21.79;58.55;94178.09;4202919;28;20045;-58
2023/06/13 08:13:02;;;;;;;11.70;9.35;;;;;;;21.82;58.48;94174.97;4208958;28;20059;-60
2023/06/13 08:15:05;;;;;;;10.95;8.90;;;;;;;21.87;57.91;94169.72;4209915;28;20143;-59
2023/06/13 08:17:07;;;;;;;14.90;9.30;;;;;;;21.87;57.92;94175.03;4207423;28;20067;-61
2023/06/13 08:19:09;;;;;;;12.80;9.10;;;;;;;21.92;56.98;94183.16;4209511;28;20281;-61
2023/06/13 08:21:10;;;;;;;12.85;9.48;;;;;;;21.94;57.30;94181.03;4203777;28;20075;-61
2023/06/13 08:23:14;;;;;;;11.55;9.43;;;;;;;21.97;57.35;94180.56;4194909;28;20061;-62
2023/06/13 08:25:16;;;;;;;15.07;9.90;;;;;;;22.02;56.64;94180.63;4199474;28;20047;-60
2023/06/13 08:27:18;;;;;;;12.95;9.30;;;;;;;22.05;56.81;94174.81;4209227;28;20128;-61
2023/06/13 08:29:38;;;;;;;15.38;9.98;;;;;;;22.07;56.28;94177.25;4210821;28;20077;-60
2023/06/13 08:31:40;;;;;;;11.70;9.75;;;;;;;22.11;55.66;94177.56;4202506;28;20131;-59
2023/06/13 08:33:51;;;;;;;10.02;8.77;;;;;;;22.12;56.55;94168.50;4208402;28;20603;-61
2023/06/13 08:36:09;;;;;;;13.25;9.27;;;;;;;22.14;57.20;94172.56;4211022;28;20083;-60
2023/06/13 08:38:27;;;;;;;13.95;9.32;;;;;;;22.11;57.38;94169.56;4213734;28;20044;-60
2023/06/13 08:40:49;;;;;;;14.00;10.20;;;;;;;22.08;58.11;94162.84;4212534;28;20055;-60
2023/06/13 08:42:51;;;;;;;11.15;9.15;;;;;;;22.09;57.46;94162.63;4206366;28;20052;-59
2023/06/13 08:44:53;;;;;;;12.32;9.85;;;;;;;22.07;57.88;94170.06;4207358;28;20056;-59
2023/06/13 08:46:55;;;;;;;15.98;10.57;;;;;;;22.09;57.94;94173.28;4213151;28;20059;-58
2023/06/13 08:48:56;;;;;;;14.65;8.77;;;;;;;22.09;57.99;94167.94;4182041;28;20098;-60
2023/06/13 08:51:03;;;;;;;11.82;9.48;;;;;;;22.13;58.46;94167.44;4205358;28;20484;-56
2023/06/13 08:53:06;;;;;;;11.98;10.27;;;;;;;22.15;58.42;94168.81;4201693;28;20055;-57
2023/06/13 08:55:12;;;;;;;12.47;9.97;;;;;;;22.16;58.27;94173.13;4209618;28;20440;-61
2023/06/13 08:57:36;;;;;;;14.07;10.05;;;;;;;21.87;58.82;94169.72;4205607;28;20394;-59
2023/06/13 08:59:39;;;;;;;14.45;11.23;;;;;;;21.61;59.98;94176.47;4199537;28;20140;-59
2023/06/13 09:01:43;;;;;;;20.35;10.52;;;;;;;21.56;59.73;94173.75;4211492;28;20127;-61
2023/06/13 09:03:46;;;;;;;15.98;10.02;;;;;;;21.57;59.86;94168.16;4211477;28;20842;-60
2023/06/13 09:05:48;;;;;;;14.93;7.78;;;;;;;21.44;60.51;94176.44;4212646;28;20162;-59
2023/06/13 09:07:50;;;;;;;9.80;7.03;;;;;;;21.05;62.47;94179.69;4199177;28;20045;-58
2023/06/13 09:09:53;;;;;;;9.30;6.03;;;;;;;20.88;63.40;94176.16;4209843;28;20071;-58
2023/06/13 09:11:58;;;;;;;9.10;5.82;;;;;;;20.86;63.54;94183.56;4207599;28;20059;-61
2023/06/13 09:14:00;;;;;;;7.35;5.53;;;;;;;20.75;64.00;94182.53;4194947;28;20180;-61
2023/06/13 09:16:02;;;;;;;7.63;5.85;;;;;;;20.76;64.25;94176.19;4212250;28;20083;-59
2023/06/13 09:18:04;;;;;;;7.55;6.07;;;;;;;20.84;64.42;94181.16;4195586;28;20079;-61
2023/06/13 09:20:07;;;;;;;8.32;6.28;;;;;;;20.71;64.61;94180.59;4209352;28;20160;-61
2023/06/13 09:22:09;;;;;;;9.90;6.80;;;;;;;20.60;65.11;94190.22;4202890;28;20079;-59
2023/06/13 09:24:12;;;;;;;9.73;6.70;;;;;;;20.68;65.40;94192.53;4212459;28;20058;-61
2023/06/13 09:26:16;;;;;;;7.97;6.53;;;;;;;20.76;65.78;94189.50;4204848;28;20076;-62
2023/06/13 09:28:30;;;;;;;;;;;;;;;20.84;65.54;94188.31;4199914;28;20900;-60
2023/06/13 09:30:32;;;;;;;6.72;5.95;;;;;;;20.92;65.18;94189.81;4211405;28;20362;-62
2023/06/13 09:32:34;;;;;;;13.65;7.15;;;;;;;21.01;65.24;94185.72;4212649;28;20420;-60
2023/06/13 09:34:38;;;;;;;9.13;6.50;;;;;;;21.02;64.93;94195.34;4211366;28;20050;-61